Huvudsida
METAR-TAF:

METAR-TAF

Flygplatser :

Bahrains internationella flygplats

Bahrain, Bahrain

latitud: 26-16N, longitud: 050-39E, höjd: 2 m

Aktuellt väderrapport

Denna rapport gjordes för 32 minuter sedan, klockan 05:30 UTC
Vind 12 kt från nordväst
Temperatur 36°C
Fuktighet 53%
Tryck 997 hPa
Sikt 10 km eller mer
Inga moln under 1 500 m eller inga cumulonimbus

METAR: OBBI 230530Z 31012KT CAVOK 36/25 Q0997 NOSIG

Tid: 09:02 (06:02 UTC)

Väderprognos

Denna rapport gjordes för 1 timme och 2 minuter sedan, klockan 05:00 UTC
Prognos gäller från 23 kl. 06 UTC till 24 kl. 12 UTC
Vind 15 kt från nord/nordväst i byarna ända upp till 25 kt
Sikt 10 km eller mer
Inga moln under 1 500 m eller inga cumulonimbus
Blir
från 23 kl. 14 UTC till 23 kl. 16 UTC
Vind 10 kt från nord/nordväst

TAF: OBBI 230500Z 2306/2412 34015G25KT CAVOK BECMG 2314/2316 33010KT

Aktuella väderrapporter och prognoser från 4000 flygplatser (METAR- och TAF-rapporter).

De tillgängliga stationerna syns som gula och röda prickar på kartan.

För musen över prickarna för att se namnen på stationerna.

Klicka sedan för att få väderrapporter och prognoser.

För att ändra kartan: Klicka på de gröna knapparna med ett svart kors på för att zooma in; den gröna knappen med ett streck på för att zooma ut; eller på de gröna pilarna för angränsande kartor.


METAR-TAF: